createdAt,value
2022-12-31T00:01:59.161Z,53.65
2022-12-31T00:04:30.232Z,60.63
2022-12-31T00:07:03.445Z,34.63
2022-12-31T00:09:34.341Z,41.38
2022-12-31T00:12:04.947Z,28.27
2022-12-31T00:14:35.460Z,24.65
2022-12-31T00:17:06.262Z,27.73
2022-12-31T00:19:36.763Z,19.70
2022-12-31T00:22:10.315Z,34.45
2022-12-31T00:24:40.763Z,24.92
2022-12-31T00:27:11.347Z,37.53
2022-12-31T00:29:41.829Z,21.20
2022-12-31T00:32:12.462Z,38.67
2022-12-31T00:34:42.964Z,47.85
2022-12-31T00:37:16.065Z,60.90
2022-12-31T00:39:46.395Z,35.22
2022-12-31T00:42:16.928Z,22.42
2022-12-31T00:44:47.356Z,20.95
2022-12-31T00:47:17.833Z,26.58
2022-12-31T00:49:48.562Z,25.17
2022-12-31T00:52:21.772Z,20.83
2022-12-31T00:54:52.181Z,20.63
2022-12-31T00:57:22.772Z,18.73
2022-12-31T00:59:53.211Z,16.55
2022-12-31T01:02:23.950Z,18.33
2022-12-31T01:04:54.642Z,21.73
2022-12-31T01:07:27.715Z,27.92
2022-12-31T01:09:58.139Z,36.83
2022-12-31T01:12:28.798Z,41.55
2022-12-31T01:14:59.195Z,19.17
2022-12-31T01:17:29.916Z,19.65
2022-12-31T01:20:00.394Z,19.60
2022-12-31T01:22:33.517Z,18.55
2022-12-31T01:25:03.936Z,21.02
2022-12-31T01:27:34.501Z,17.15
2022-12-31T01:30:05.897Z,19.33
2022-12-31T01:32:36.444Z,19.20
2022-12-31T01:35:09.184Z,18.30
2022-12-31T01:37:42.248Z,18.15
2022-12-31T01:40:15.952Z,20.85
2022-12-31T01:42:46.585Z,17.40
2022-12-31T01:45:17.448Z,16.67
2022-12-31T01:47:51.431Z,19.33
2022-12-31T01:50:27.371Z,21.52
2022-12-31T01:53:03.900Z,24.10
2022-12-31T01:55:38.116Z,26.88
2022-12-31T01:58:12.660Z,23.25
2022-12-31T02:00:43.263Z,43.10
2022-12-31T02:03:14.608Z,23.00
2022-12-31T02:05:51.107Z,19.73
2022-12-31T02:08:24.495Z,19.48
2022-12-31T02:10:55.006Z,21.17
2022-12-31T02:13:26.258Z,19.70
2022-12-31T02:16:11.158Z,19.10
2022-12-31T02:18:59.129Z,23.27
2022-12-31T02:21:43.486Z,23.40
2022-12-31T02:24:58.304Z,39.97
2022-12-31T02:27:45.138Z,46.92
2022-12-31T02:30:21.533Z,46.38
2022-12-31T02:33:02.790Z,28.33
2022-12-31T02:35:40.583Z,19.52
2022-12-31T02:38:14.918Z,19.58
2022-12-31T02:40:45.373Z,15.70
2022-12-31T02:43:15.865Z,13.68
2022-12-31T02:45:54.165Z,14.60
2022-12-31T02:48:42.635Z,16.77
2022-12-31T02:51:28.360Z,33.53
2022-12-31T02:54:20.672Z,31.70
2022-12-31T02:57:01.120Z,44.50
2022-12-31T02:59:53.087Z,40.65
2022-12-31T03:02:30.129Z,42.08
2022-12-31T03:05:02.527Z,47.00
2022-12-31T03:07:35.213Z,28.38
2022-12-31T03:10:05.866Z,24.08
2022-12-31T03:12:48.325Z,42.53
2022-12-31T03:15:24.688Z,41.75
2022-12-31T03:18:04.130Z,23.80
2022-12-31T03:20:49.506Z,33.72
2022-12-31T03:23:23.165Z,21.75
2022-12-31T03:25:51.439Z,28.77
2022-12-31T03:28:23.520Z,26.45
2022-12-31T03:30:55.974Z,18.23
2022-12-31T03:33:33.086Z,13.40
2022-12-31T03:36:07.232Z,18.42
2022-12-31T03:38:37.839Z,19.67
2022-12-31T03:41:08.889Z,41.17
2022-12-31T03:43:39.494Z,38.58
2022-12-31T03:46:10.129Z,41.45
2022-12-31T03:48:43.338Z,36.58
2022-12-31T03:51:14.350Z,40.20
2022-12-31T03:53:44.912Z,22.60
2022-12-31T03:56:15.372Z,38.70
2022-12-31T03:58:45.895Z,39.83
2022-12-31T04:01:16.410Z,36.75
2022-12-31T04:03:49.668Z,36.25
2022-12-31T04:06:20.367Z,31.30
2022-12-31T04:08:50.953Z,36.00
2022-12-31T04:11:21.429Z,34.95
2022-12-31T04:13:51.954Z,31.42
2022-12-31T04:16:22.447Z,26.45
2022-12-31T04:18:55.771Z,34.92
2022-12-31T04:21:31.442Z,32.15
2022-12-31T04:24:05.614Z,25.92
2022-12-31T04:26:36.159Z,24.70
2022-12-31T04:29:07.122Z,18.15
2022-12-31T04:31:37.629Z,16.63
2022-12-31T04:34:11.113Z,27.73
2022-12-31T04:36:41.784Z,29.80
2022-12-31T04:39:12.526Z,32.28
2022-12-31T04:41:42.952Z,26.65
2022-12-31T04:44:13.628Z,20.45
2022-12-31T04:46:44.136Z,33.00
2022-12-31T04:49:17.442Z,32.25
2022-12-31T04:51:48.280Z,35.75
2022-12-31T04:54:18.818Z,36.85
2022-12-31T04:56:49.280Z,32.53
2022-12-31T04:59:19.884Z,34.45
2022-12-31T05:01:50.517Z,34.38
2022-12-31T05:04:24.396Z,29.15
2022-12-31T05:06:54.821Z,29.92
2022-12-31T05:09:27.772Z,32.22
2022-12-31T05:11:58.356Z,34.15
2022-12-31T05:14:28.924Z,28.33
2022-12-31T05:16:59.588Z,27.63
2022-12-31T05:19:32.804Z,20.02
2022-12-31T05:22:15.577Z,25.08
2022-12-31T05:24:46.018Z,30.77
2022-12-31T05:27:18.554Z,40.00
2022-12-31T05:29:49.105Z,23.08
2022-12-31T05:32:19.911Z,27.80
2022-12-31T05:34:53.822Z,22.08
2022-12-31T05:37:24.362Z,18.80
2022-12-31T05:39:55.116Z,18.25
2022-12-31T05:42:25.566Z,23.20
2022-12-31T05:44:56.164Z,33.20
2022-12-31T05:47:26.749Z,27.05
2022-12-31T05:50:00.064Z,27.15
2022-12-31T05:52:30.630Z,45.33
2022-12-31T05:55:01.326Z,45.67
2022-12-31T05:57:31.916Z,45.35
2022-12-31T06:00:02.561Z,51.67
2022-12-31T06:02:44.310Z,56.05
2022-12-31T06:05:22.469Z,58.28
2022-12-31T06:07:56.359Z,58.10
2022-12-31T06:10:26.880Z,67.15
2022-12-31T06:12:57.417Z,72.05
2022-12-31T06:15:28.020Z,68.95
2022-12-31T06:17:58.494Z,38.60
2022-12-31T06:20:31.791Z,40.22
2022-12-31T06:23:02.228Z,58.92
2022-12-31T06:25:32.777Z,69.03
2022-12-31T06:28:04.248Z,45.78
2022-12-31T06:30:34.802Z,34.22
2022-12-31T06:33:05.280Z,31.92
2022-12-31T06:35:38.528Z,34.13
2022-12-31T06:38:09.181Z,30.98
2022-12-31T06:40:40.809Z,35.85
2022-12-31T06:43:12.850Z,49.72
2022-12-31T06:45:44.340Z,34.33
2022-12-31T06:48:14.997Z,41.85
2022-12-31T06:50:48.203Z,25.75
2022-12-31T06:53:18.793Z,26.33
2022-12-31T06:55:51.664Z,21.38
2022-12-31T06:58:22.782Z,22.05
2022-12-31T07:01:00.587Z,31.65
2022-12-31T07:03:37.319Z,31.55
2022-12-31T07:06:16.465Z,26.70
2022-12-31T07:08:53.651Z,23.75
2022-12-31T07:11:26.761Z,24.88
2022-12-31T07:14:07.068Z,22.77
2022-12-31T07:16:53.463Z,27.95
2022-12-31T07:19:39.654Z,24.40
2022-12-31T07:22:18.234Z,24.35
2022-12-31T07:24:49.407Z,32.35
2022-12-31T07:27:40.268Z,19.48
2022-12-31T07:30:14.861Z,46.95
2022-12-31T07:33:17.160Z,50.40
2022-12-31T07:35:57.152Z,57.15
2022-12-31T07:38:39.845Z,38.13
2022-12-31T07:41:18.883Z,47.05
2022-12-31T07:44:01.510Z,72.65
2022-12-31T07:46:39.078Z,67.93
2022-12-31T07:49:14.239Z,56.28
2022-12-31T07:51:45.729Z,54.88
2022-12-31T07:54:18.903Z,45.25
2022-12-31T07:56:49.666Z,44.83
2022-12-31T07:59:35.683Z,45.38
2022-12-31T08:04:51.056Z,34.75
2022-12-31T08:07:31.976Z,34.95
2022-12-31T08:10:17.511Z,42.35
2022-12-31T08:15:28.480Z,34.65
2022-12-31T08:18:01.255Z,39.95
2022-12-31T08:20:35.600Z,45.22
2022-12-31T08:23:27.815Z,50.55
2022-12-31T08:26:13.756Z,37.50
2022-12-31T08:29:04.993Z,56.65
2022-12-31T08:31:43.443Z,46.47
2022-12-31T08:34:25.645Z,40.75
2022-12-31T08:37:03.269Z,39.65
2022-12-31T08:39:46.538Z,33.90
2022-12-31T08:42:28.705Z,34.33
2022-12-31T08:45:06.496Z,30.58
2022-12-31T08:47:48.875Z,35.20
2022-12-31T08:50:20.992Z,21.40
2022-12-31T08:52:52.133Z,19.05
2022-12-31T08:55:23.715Z,18.65
2022-12-31T08:58:15.628Z,27.35
2022-12-31T09:00:46.235Z,34.60
2022-12-31T09:03:34.841Z,29.52
2022-12-31T09:06:13.558Z,19.65
2022-12-31T09:08:54.733Z,17.25
2022-12-31T09:11:32.466Z,12.40
2022-12-31T09:14:32.660Z,17.65
2022-12-31T09:17:07.697Z,14.55
2022-12-31T09:19:38.154Z,19.13
2022-12-31T09:22:09.606Z,15.88
2022-12-31T09:24:40.849Z,14.32
2022-12-31T09:27:25.458Z,16.50
2022-12-31T09:30:06.843Z,20.42
2022-12-31T09:32:55.337Z,25.20
2022-12-31T09:35:37.545Z,23.00
2022-12-31T09:38:16.897Z,17.60
2022-12-31T09:40:58.896Z,21.73
2022-12-31T09:44:05.349Z,27.75
2022-12-31T09:47:17.915Z,22.70
2022-12-31T09:50:22.506Z,20.15
2022-12-31T09:53:09.773Z,21.42
2022-12-31T09:55:48.698Z,30.33
2022-12-31T09:58:35.629Z,25.58
2022-12-31T10:01:17.088Z,21.98
2022-12-31T10:04:09.975Z,18.70
2022-12-31T10:06:49.832Z,18.17
2022-12-31T10:09:34.004Z,17.30
2022-12-31T10:12:21.783Z,6.50
2022-12-31T10:15:08.861Z,12.18
2022-12-31T10:17:57.834Z,10.10
2022-12-31T10:20:45.249Z,7.72
2022-12-31T10:24:00.299Z,8.57
2022-12-31T10:26:40.735Z,12.20
2022-12-31T10:29:27.099Z,8.80
2022-12-31T10:32:12.333Z,9.18
2022-12-31T10:34:56.390Z,6.70
2022-12-31T10:37:42.782Z,7.80
2022-12-31T10:40:26.196Z,8.55
2022-12-31T10:43:26.375Z,8.52
2022-12-31T10:46:24.295Z,6.57
2022-12-31T10:49:34.848Z,11.10
2022-12-31T10:52:41.436Z,8.13
2022-12-31T10:55:53.464Z,7.78
2022-12-31T10:58:55.058Z,8.43
2022-12-31T11:01:36.906Z,7.05
2022-12-31T11:04:35.983Z,7.57
2022-12-31T11:07:44.259Z,6.07
2022-12-31T11:10:56.137Z,7.40
2022-12-31T11:13:44.818Z,6.00
2022-12-31T11:16:41.695Z,8.18
2022-12-31T11:19:22.307Z,7.97
2022-12-31T11:22:15.909Z,6.57
2022-12-31T11:25:06.072Z,7.15
2022-12-31T11:27:56.472Z,5.75
2022-12-31T11:30:35.935Z,5.78
2022-12-31T11:33:20.227Z,5.85
2022-12-31T11:36:10.589Z,6.90
2022-12-31T11:38:46.309Z,8.82
2022-12-31T11:41:24.456Z,5.32
2022-12-31T11:44:06.004Z,7.07
2022-12-31T11:47:03.322Z,5.30
2022-12-31T11:49:53.089Z,5.97
2022-12-31T11:52:39.509Z,8.65
2022-12-31T11:55:46.216Z,8.07
2022-12-31T11:58:20.603Z,5.72
2022-12-31T12:00:59.701Z,5.60
2022-12-31T12:03:30.911Z,14.55
2022-12-31T12:06:02.197Z,7.70
2022-12-31T12:08:34.942Z,7.05
2022-12-31T12:11:10.503Z,13.52
2022-12-31T12:13:40.990Z,7.72
2022-12-31T12:16:14.299Z,7.32
2022-12-31T12:18:48.774Z,11.52
2022-12-31T12:21:22.638Z,9.60
2022-12-31T12:23:59.832Z,8.27
2022-12-31T12:26:32.793Z,8.93
2022-12-31T12:29:11.380Z,7.13
2022-12-31T12:31:45.253Z,8.82
2022-12-31T12:34:27.313Z,8.57
2022-12-31T12:36:58.260Z,6.00
2022-12-31T12:39:31.083Z,5.88
2022-12-31T12:42:06.963Z,6.10
2022-12-31T12:44:38.680Z,8.35
2022-12-31T12:47:17.357Z,7.28
2022-12-31T12:49:49.897Z,6.07
2022-12-31T12:52:46.587Z,4.75
2022-12-31T12:55:24.320Z,6.13
2022-12-31T12:58:04.556Z,7.60
2022-12-31T13:00:41.313Z,7.68
2022-12-31T13:04:31.969Z,6.72
2022-12-31T13:06:53.596Z,7.45
2022-12-31T13:09:37.993Z,9.50
2022-12-31T13:12:17.799Z,11.05
2022-12-31T13:14:57.099Z,9.63
2022-12-31T13:17:42.158Z,8.18
2022-12-31T13:20:22.578Z,16.20
2022-12-31T13:23:05.470Z,19.35
2022-12-31T13:25:46.200Z,10.13
2022-12-31T13:28:20.110Z,19.33
2022-12-31T13:30:53.479Z,15.38
2022-12-31T13:33:27.920Z,20.52
2022-12-31T13:36:01.407Z,16.77
2022-12-31T13:38:39.760Z,25.77
2022-12-31T13:41:16.592Z,13.57
2022-12-31T13:43:53.226Z,14.27
2022-12-31T13:46:40.902Z,14.15
2022-12-31T13:49:22.172Z,10.82
2022-12-31T13:51:55.552Z,11.85
2022-12-31T13:54:37.944Z,12.70
2022-12-31T13:57:14.733Z,11.10
2022-12-31T13:59:51.682Z,9.93
2022-12-31T14:02:34.577Z,10.15
2022-12-31T14:05:12.400Z,6.82
2022-12-31T14:07:50.545Z,10.32
2022-12-31T14:10:31.309Z,9.25
2022-12-31T14:13:11.489Z,11.93
2022-12-31T14:15:50.049Z,18.20
2022-12-31T14:18:26.635Z,11.70
2022-12-31T14:21:05.131Z,10.32
2022-12-31T14:23:47.682Z,17.52
2022-12-31T14:26:28.371Z,18.17
2022-12-31T14:29:07.454Z,22.13
2022-12-31T14:32:06.746Z,105.68
2022-12-31T14:34:50.389Z,101.93
2022-12-31T14:37:30.347Z,91.28
2022-12-31T14:40:09.471Z,73.25
2022-12-31T14:42:49.342Z,66.40
2022-12-31T14:45:47.608Z,74.50
2022-12-31T14:48:32.348Z,78.05
2022-12-31T14:51:05.557Z,85.22
2022-12-31T14:53:36.085Z,85.10
2022-12-31T14:56:08.936Z,89.57
2022-12-31T14:58:43.884Z,94.78
2022-12-31T15:01:26.340Z,62.03
2022-12-31T15:03:58.968Z,59.25
2022-12-31T15:06:51.006Z,60.92
2022-12-31T15:09:44.062Z,52.97
2022-12-31T15:12:30.076Z,49.17
2022-12-31T15:17:51.995Z,48.20
2022-12-31T15:20:51.116Z,52.17
2022-12-31T15:23:25.163Z,45.08
2022-12-31T15:26:01.342Z,60.17
2022-12-31T15:28:38.683Z,61.78
2022-12-31T15:31:20.996Z,55.72
2022-12-31T15:33:59.955Z,51.05
2022-12-31T15:36:33.347Z,54.72
2022-12-31T15:39:10.086Z,53.17
2022-12-31T15:42:03.094Z,70.28
2022-12-31T15:44:41.483Z,75.47
2022-12-31T15:47:20.720Z,67.22
2022-12-31T15:49:51.694Z,104.53
2022-12-31T15:52:28.721Z,115.55
2022-12-31T15:55:00.589Z,62.42
2022-12-31T15:57:39.993Z,59.72
2022-12-31T16:00:18.729Z,65.15
2022-12-31T16:02:55.821Z,65.72
2022-12-31T16:05:28.650Z,102.07
2022-12-31T16:08:01.270Z,100.63
2022-12-31T16:10:34.886Z,110.70
2022-12-31T16:13:06.378Z,112.88
2022-12-31T16:15:37.946Z,94.72
2022-12-31T16:18:20.749Z,92.95
2022-12-31T16:20:54.647Z,74.22
2022-12-31T16:23:27.742Z,62.50
2022-12-31T16:26:01.514Z,74.55
2022-12-31T16:28:33.920Z,82.13
2022-12-31T16:31:07.123Z,75.60
2022-12-31T16:33:40.457Z,68.75
2022-12-31T16:36:23.659Z,69.07
2022-12-31T16:38:59.736Z,77.07
2022-12-31T16:41:36.726Z,87.80
2022-12-31T16:44:07.333Z,82.50
2022-12-31T16:46:39.638Z,74.15
2022-12-31T16:49:22.304Z,66.50
2022-12-31T16:51:53.131Z,73.85
2022-12-31T16:54:33.972Z,71.63
2022-12-31T16:57:05.828Z,72.22
2022-12-31T16:59:42.900Z,81.88
2022-12-31T17:02:22.026Z,93.38
2022-12-31T17:04:56.675Z,74.13
2022-12-31T17:07:47.876Z,70.30
2022-12-31T17:10:27.036Z,65.55
2022-12-31T17:13:28.420Z,72.18
2022-12-31T17:15:50.928Z,61.83
2022-12-31T17:18:23.543Z,66.00
2022-12-31T17:20:58.341Z,66.60
2022-12-31T17:23:31.937Z,128.10
2022-12-31T17:26:06.285Z,127.18
2022-12-31T17:28:45.043Z,134.68
2022-12-31T17:31:38.324Z,77.85
2022-12-31T17:34:32.411Z,73.35
2022-12-31T17:37:18.091Z,69.70
2022-12-31T17:39:52.120Z,81.43
2022-12-31T17:42:33.062Z,76.68
2022-12-31T17:45:05.623Z,73.65
2022-12-31T17:47:41.513Z,69.63
2022-12-31T17:50:23.329Z,69.28
2022-12-31T17:53:00.412Z,65.28
2022-12-31T17:55:32.054Z,65.78
2022-12-31T17:58:08.128Z,71.00
2022-12-31T18:00:40.251Z,67.63
2022-12-31T18:03:10.883Z,65.75
2022-12-31T18:05:41.541Z,65.85
2022-12-31T18:08:14.851Z,61.30
2022-12-31T18:10:47.678Z,61.42
2022-12-31T18:13:20.816Z,61.10
2022-12-31T18:15:51.316Z,56.35
2022-12-31T18:18:25.480Z,61.88
2022-12-31T18:20:59.804Z,57.20
2022-12-31T18:23:38.642Z,56.55
2022-12-31T18:26:09.191Z,66.35
2022-12-31T18:28:39.774Z,58.25
2022-12-31T18:31:10.445Z,65.47
2022-12-31T18:33:41.118Z,66.22
2022-12-31T18:36:15.723Z,78.32
2022-12-31T18:38:48.906Z,79.53
2022-12-31T18:41:21.602Z,77.40
2022-12-31T18:43:52.476Z,61.00
2022-12-31T18:46:25.518Z,62.95
2022-12-31T18:48:56.100Z,60.38
2022-12-31T18:51:32.201Z,67.03
2022-12-31T18:54:07.010Z,59.95
2022-12-31T18:56:41.814Z,60.03
2022-12-31T18:59:15.875Z,55.55
2022-12-31T19:01:46.561Z,56.63
2022-12-31T19:04:26.672Z,52.17
2022-12-31T19:06:59.081Z,54.05
2022-12-31T19:09:50.111Z,49.50
2022-12-31T19:12:22.662Z,57.88
2022-12-31T19:14:53.063Z,56.65
2022-12-31T19:17:23.616Z,49.42
2022-12-31T19:19:54.116Z,53.35
2022-12-31T19:22:24.687Z,54.53
2022-12-31T19:24:57.903Z,65.65
2022-12-31T19:27:28.408Z,86.28
2022-12-31T19:30:00.724Z,65.05
2022-12-31T19:32:31.475Z,60.40
2022-12-31T19:35:02.052Z,63.25
2022-12-31T19:37:32.794Z,67.22
2022-12-31T19:40:06.086Z,63.03
2022-12-31T19:42:36.527Z,61.95
2022-12-31T19:45:08.154Z,65.80
2022-12-31T19:47:38.644Z,61.70
2022-12-31T19:50:10.000Z,64.13
2022-12-31T19:52:40.648Z,62.53
2022-12-31T19:55:16.296Z,63.58
2022-12-31T20:00:19.012Z,64.82
2022-12-31T20:02:51.699Z,54.83
2022-12-31T20:05:23.198Z,72.00
2022-12-31T20:07:53.739Z,59.70
2022-12-31T20:10:26.944Z,83.43
2022-12-31T20:12:57.683Z,61.72
2022-12-31T20:15:28.267Z,66.78
2022-12-31T20:18:00.439Z,63.88
2022-12-31T20:20:32.582Z,56.72
2022-12-31T20:23:03.081Z,58.65
2022-12-31T20:25:36.315Z,58.83
2022-12-31T20:28:07.042Z,55.10
2022-12-31T20:30:39.998Z,64.88
2022-12-31T20:33:15.762Z,78.93
2022-12-31T20:35:47.894Z,79.75
2022-12-31T20:38:18.369Z,86.95
2022-12-31T20:40:51.564Z,71.68
2022-12-31T20:43:22.200Z,61.42
2022-12-31T20:45:52.808Z,61.33
2022-12-31T20:48:23.438Z,53.97
2022-12-31T20:50:57.906Z,59.88
2022-12-31T20:53:28.490Z,51.58
2022-12-31T20:56:06.252Z,57.03
2022-12-31T20:58:36.785Z,62.17
2022-12-31T21:01:09.855Z,90.95
2022-12-31T21:06:33.790Z,59.75
2022-12-31T21:09:06.405Z,49.72
2022-12-31T21:11:51.969Z,54.30
2022-12-31T21:14:22.532Z,52.63
2022-12-31T21:16:53.105Z,49.63
2022-12-31T21:19:23.672Z,51.40
2022-12-31T21:21:54.151Z,53.22
2022-12-31T21:24:24.810Z,53.08
2022-12-31T21:26:58.601Z,51.47
2022-12-31T21:29:34.310Z,52.30
2022-12-31T21:32:05.778Z,52.50
2022-12-31T21:34:36.842Z,50.58
2022-12-31T21:37:07.513Z,60.70
2022-12-31T21:39:38.139Z,70.32
2022-12-31T21:42:11.467Z,67.78
2022-12-31T21:44:42.183Z,67.22
2022-12-31T21:47:41.216Z,107.45
2022-12-31T21:50:16.097Z,83.03
2022-12-31T21:52:46.684Z,70.00
2022-12-31T21:55:29.525Z,87.45
2022-12-31T22:01:07.144Z,70.50
2022-12-31T22:03:37.834Z,61.58
2022-12-31T22:06:12.440Z,164.02
2022-12-31T22:08:44.356Z,274.33
2022-12-31T22:11:16.357Z,152.35
2022-12-31T22:13:50.614Z,215.75
2022-12-31T22:16:22.132Z,239.85
2022-12-31T22:18:53.441Z,238.82
2022-12-31T22:21:26.845Z,219.88
2022-12-31T22:23:59.758Z,202.55
2022-12-31T22:26:31.975Z,123.20
2022-12-31T22:29:05.088Z,106.53
2022-12-31T22:31:35.677Z,101.40
2022-12-31T22:34:06.256Z,103.20
2022-12-31T22:36:37.005Z,101.90
2022-12-31T22:39:07.537Z,102.40
2022-12-31T22:41:40.179Z,101.55
2022-12-31T22:44:13.240Z,90.30
2022-12-31T22:46:45.983Z,103.22
2022-12-31T22:49:17.391Z,116.72
2022-12-31T22:51:56.550Z,112.78
2022-12-31T22:54:30.270Z,119.55
2022-12-31T22:57:01.487Z,128.55
2022-12-31T22:59:34.605Z,111.13
2022-12-31T23:02:05.168Z,91.13
2022-12-31T23:04:36.031Z,94.15
2022-12-31T23:07:07.976Z,110.72
2022-12-31T23:09:50.784Z,134.73
2022-12-31T23:12:21.443Z,133.27
2022-12-31T23:15:06.988Z,141.35
2022-12-31T23:17:49.775Z,226.70
2022-12-31T23:20:36.223Z,211.15
2022-12-31T23:23:11.704Z,207.93
2022-12-31T23:28:16.070Z,145.05
2022-12-31T23:30:49.237Z,122.05
2022-12-31T23:33:22.511Z,96.63
2022-12-31T23:35:53.311Z,151.32
2022-12-31T23:38:24.006Z,177.38
2022-12-31T23:40:54.551Z,135.60
2022-12-31T23:43:25.606Z,102.38
2022-12-31T23:45:58.795Z,106.82
2022-12-31T23:48:29.370Z,87.40
2022-12-31T23:50:59.876Z,82.50
2022-12-31T23:53:30.559Z,66.55
2022-12-31T23:56:14.846Z,71.07
2022-12-31T23:58:48.254Z,71.82
